createdAt,value
2017-08-03T00:00:13.424Z,65.01
2017-08-03T00:02:42.970Z,65.33
2017-08-03T00:05:12.910Z,65.27
2017-08-03T00:07:42.479Z,65.31
2017-08-03T00:10:12.032Z,65.84
2017-08-03T00:12:41.623Z,65.30
2017-08-03T00:15:11.177Z,64.96
2017-08-03T00:17:40.775Z,64.39
2017-08-03T00:20:11.109Z,63.85
2017-08-03T00:22:40.640Z,63.62
2017-08-03T00:25:10.541Z,63.36
2017-08-03T00:27:40.099Z,63.63
2017-08-03T00:30:09.648Z,63.46
2017-08-03T00:32:39.217Z,63.28
2017-08-03T00:35:08.785Z,63.36
2017-08-03T00:37:38.337Z,62.90
2017-08-03T00:40:07.873Z,63.38
2017-08-03T00:42:37.495Z,63.20
2017-08-03T00:45:07.019Z,63.60
2017-08-03T00:47:36.400Z,63.48
2017-08-03T00:50:05.265Z,62.91
2017-08-03T00:52:35.561Z,63.36
2017-08-03T00:55:04.779Z,62.86
2017-08-03T00:57:34.318Z,62.96
2017-08-03T01:00:03.849Z,62.89
2017-08-03T01:02:33.393Z,62.22
2017-08-03T01:05:02.916Z,63.00
2017-08-03T01:07:32.473Z,63.31
2017-08-03T01:10:02.301Z,63.32
2017-08-03T01:12:31.845Z,63.54
2017-08-03T01:15:01.029Z,63.29
2017-08-03T01:17:30.577Z,62.77
2017-08-03T01:20:00.120Z,62.32
2017-08-03T01:22:29.693Z,62.17
2017-08-03T01:24:59.224Z,61.66
2017-08-03T01:27:28.792Z,61.75
2017-08-03T01:29:58.377Z,62.22
2017-08-03T01:32:27.911Z,62.21
2017-08-03T01:34:57.129Z,62.37
2017-08-03T01:37:26.349Z,62.21
2017-08-03T01:39:56.399Z,62.79
2017-08-03T01:42:26.051Z,62.38
2017-08-03T01:44:55.660Z,62.90
2017-08-03T01:47:25.233Z,62.61
2017-08-03T01:49:54.770Z,63.35
2017-08-03T01:52:23.967Z,64.10
2017-08-03T01:54:52.829Z,63.91
2017-08-03T01:57:22.392Z,63.55
2017-08-03T01:59:51.931Z,63.46
2017-08-03T02:02:21.459Z,63.59
2017-08-03T02:04:50.643Z,64.23
2017-08-03T02:07:20.248Z,64.74
2017-08-03T02:09:50.214Z,65.07
2017-08-03T02:12:19.799Z,64.37
2017-08-03T02:14:49.335Z,64.72
2017-08-03T02:17:18.888Z,65.12
2017-08-03T02:19:48.420Z,65.52
2017-08-03T02:22:18.077Z,65.51
2017-08-03T02:24:47.642Z,65.93
2017-08-03T02:27:17.183Z,66.32
2017-08-03T02:29:46.912Z,66.03
2017-08-03T02:32:16.555Z,66.60
2017-08-03T02:34:46.144Z,67.12
2017-08-03T02:37:15.715Z,67.63
2017-08-03T02:39:45.316Z,67.86
2017-08-03T02:42:14.885Z,67.90
2017-08-03T02:44:44.430Z,67.82
2017-08-03T02:47:13.993Z,68.02
2017-08-03T02:49:43.560Z,67.59
2017-08-03T02:52:13.135Z,67.68
2017-08-03T02:54:42.689Z,66.83
2017-08-03T02:57:11.328Z,66.45
2017-08-03T02:59:40.912Z,66.66
2017-08-03T03:02:10.473Z,66.46
2017-08-03T03:04:40.048Z,66.45
2017-08-03T03:07:09.238Z,66.68
2017-08-03T03:09:38.754Z,66.45
2017-08-03T03:12:08.497Z,66.33
2017-08-03T03:14:38.007Z,65.92
2017-08-03T03:17:07.567Z,66.25
2017-08-03T03:19:37.209Z,66.00
2017-08-03T03:22:06.774Z,66.58
2017-08-03T03:24:36.308Z,66.38
2017-08-03T03:27:05.902Z,66.46
2017-08-03T03:29:35.507Z,66.40
2017-08-03T03:32:05.066Z,66.42
2017-08-03T03:34:35.407Z,65.69
2017-08-03T03:37:05.721Z,66.94
2017-08-03T03:39:35.271Z,67.00
2017-08-03T03:42:04.832Z,66.76
2017-08-03T03:44:36.084Z,66.94
2017-08-03T03:47:06.386Z,66.23
2017-08-03T03:49:35.949Z,65.73
2017-08-03T03:52:05.500Z,66.40
2017-08-03T03:54:35.273Z,66.46
2017-08-03T03:57:04.853Z,66.40
2017-08-03T03:59:35.148Z,66.67
2017-08-03T04:02:04.718Z,66.54
2017-08-03T04:04:34.240Z,66.07
2017-08-03T04:07:03.808Z,66.12
2017-08-03T04:09:33.373Z,66.40
2017-08-03T04:12:02.575Z,66.04
2017-08-03T04:14:32.166Z,65.29
2017-08-03T04:17:01.793Z,65.56
2017-08-03T04:19:31.336Z,66.32
2017-08-03T04:22:00.887Z,66.25
2017-08-03T04:24:30.084Z,66.05
2017-08-03T04:26:59.615Z,65.30
2017-08-03T04:29:29.181Z,64.31
2017-08-03T04:31:58.828Z,63.85
2017-08-03T04:34:28.389Z,63.20
2017-08-03T04:36:57.933Z,63.27
2017-08-03T04:39:27.544Z,63.16
2017-08-03T04:41:57.101Z,62.86
2017-08-03T04:44:26.656Z,62.90
2017-08-03T04:46:56.213Z,62.27
2017-08-03T04:49:25.751Z,62.41
2017-08-03T04:51:55.387Z,61.46
2017-08-03T04:54:24.957Z,61.21
2017-08-03T04:56:54.481Z,60.14
2017-08-03T04:59:24.210Z,60.05
2017-08-03T05:01:53.744Z,60.15
2017-08-03T05:04:23.297Z,60.23
2017-08-03T05:06:52.850Z,60.46
2017-08-03T05:09:22.046Z,60.19
2017-08-03T05:11:51.909Z,59.98
2017-08-03T05:14:21.480Z,60.38
2017-08-03T05:16:51.023Z,60.81
2017-08-03T05:19:20.587Z,61.15
2017-08-03T05:21:50.902Z,60.58
2017-08-03T05:24:20.461Z,60.85
2017-08-03T05:26:50.006Z,59.87
2017-08-03T05:29:19.560Z,59.18
2017-08-03T05:31:49.119Z,58.87
2017-08-03T05:34:18.683Z,58.71
2017-08-03T05:36:48.357Z,58.81
2017-08-03T05:39:17.954Z,58.99
2017-08-03T05:41:47.521Z,58.70
2017-08-03T05:44:17.033Z,57.95
2017-08-03T05:46:46.634Z,56.96
2017-08-03T05:49:16.342Z,57.19
2017-08-03T05:51:45.883Z,56.71
2017-08-03T05:54:16.191Z,56.00
2017-08-03T05:56:45.712Z,56.10
2017-08-03T05:59:15.305Z,55.42
2017-08-03T06:01:44.924Z,55.03
2017-08-03T06:04:14.662Z,54.35
2017-08-03T06:06:44.788Z,54.44
2017-08-03T06:09:14.301Z,53.33
2017-08-03T06:11:43.849Z,52.77
2017-08-03T06:14:13.433Z,51.74
2017-08-03T06:16:43.001Z,51.65
2017-08-03T06:19:13.312Z,51.32
2017-08-03T06:21:42.873Z,51.19
2017-08-03T06:24:12.421Z,50.55
2017-08-03T06:26:41.942Z,50.20
2017-08-03T06:29:11.528Z,50.52
2017-08-03T06:31:41.136Z,51.05
2017-08-03T06:34:10.669Z,50.27
2017-08-03T06:36:40.984Z,49.87
2017-08-03T06:39:11.289Z,49.82
2017-08-03T06:41:40.863Z,47.78
2017-08-03T06:44:10.388Z,46.57
2017-08-03T06:46:39.951Z,46.18
2017-08-03T06:49:09.481Z,45.53
2017-08-03T06:51:39.048Z,45.30
2017-08-03T06:54:09.376Z,45.67
2017-08-03T06:56:39.681Z,45.00
2017-08-03T06:59:09.230Z,45.62
2017-08-03T07:01:38.801Z,45.14
2017-08-03T07:04:09.132Z,45.63
2017-08-03T07:06:39.450Z,45.97
2017-08-03T07:09:08.656Z,46.06
2017-08-03T07:11:38.956Z,45.36
2017-08-03T07:14:08.497Z,45.44
2017-08-03T07:16:38.609Z,45.19
2017-08-03T07:19:08.948Z,45.24
2017-08-03T07:21:38.143Z,44.84
2017-08-03T07:24:08.467Z,44.75
2017-08-03T07:26:38.752Z,44.57
2017-08-03T07:29:08.356Z,45.12
2017-08-03T07:31:37.933Z,45.18
2017-08-03T07:34:07.508Z,46.01
2017-08-03T07:36:37.844Z,46.11
2017-08-03T07:39:07.034Z,46.50
2017-08-03T07:41:37.356Z,46.63
2017-08-03T07:44:07.717Z,46.54
2017-08-03T07:46:37.290Z,46.86
2017-08-03T07:49:07.645Z,44.52
2017-08-03T07:51:37.217Z,44.82
2017-08-03T07:54:07.534Z,44.84
2017-08-03T07:56:38.011Z,44.73
2017-08-03T07:59:07.533Z,44.62
2017-08-03T08:01:37.094Z,44.49
2017-08-03T08:04:07.491Z,44.00
2017-08-03T08:06:37.027Z,45.11
2017-08-03T08:09:07.354Z,45.59
2017-08-03T08:11:36.903Z,45.56
2017-08-03T08:14:06.435Z,45.94
2017-08-03T08:16:35.976Z,45.65
2017-08-03T08:19:05.622Z,46.43
2017-08-03T08:21:35.191Z,46.82
2017-08-03T08:24:04.735Z,46.41
2017-08-03T08:26:34.308Z,49.42
2017-08-03T08:29:03.882Z,49.98
2017-08-03T08:31:33.452Z,53.06
2017-08-03T08:34:03.048Z,52.32
2017-08-03T08:36:32.598Z,53.41
2017-08-03T08:39:02.147Z,54.16
2017-08-03T08:41:31.725Z,54.59
2017-08-03T08:44:01.246Z,54.59
2017-08-03T08:46:31.566Z,54.21
2017-08-03T08:49:01.885Z,53.77
2017-08-03T08:51:32.393Z,54.70
2017-08-03T08:54:01.906Z,55.16
2017-08-03T08:56:31.634Z,55.51
2017-08-03T08:59:01.961Z,56.13
2017-08-03T09:01:32.300Z,56.74
2017-08-03T09:04:01.836Z,59.03
2017-08-03T09:06:31.366Z,58.73
2017-08-03T09:09:00.961Z,56.95
2017-08-03T09:11:30.480Z,58.71
2017-08-03T09:14:00.060Z,55.84
2017-08-03T09:16:29.569Z,56.61
2017-08-03T09:18:59.119Z,56.54
2017-08-03T09:21:28.717Z,55.92
2017-08-03T09:23:58.326Z,56.64
2017-08-03T09:26:27.909Z,55.96
2017-08-03T09:28:57.423Z,57.29
2017-08-03T09:31:26.950Z,60.54
2017-08-03T09:33:56.504Z,60.41
2017-08-03T09:36:26.063Z,59.56
2017-08-03T09:38:56.417Z,59.69
2017-08-03T09:41:26.016Z,58.12
2017-08-03T09:43:56.356Z,55.93
2017-08-03T09:46:25.917Z,56.04
2017-08-03T09:48:55.445Z,57.59
2017-08-03T09:51:24.659Z,57.08
2017-08-03T09:53:54.234Z,57.32
2017-08-03T09:56:24.429Z,59.90
2017-08-03T09:58:54.165Z,58.83
2017-08-03T10:01:23.695Z,58.85
2017-08-03T10:03:54.052Z,57.41
2017-08-03T10:06:23.229Z,58.38
2017-08-03T10:08:53.524Z,59.67
2017-08-03T10:11:23.029Z,60.32
2017-08-03T10:13:51.631Z,59.55
2017-08-03T10:16:21.937Z,60.27
2017-08-03T10:18:51.445Z,58.99
2017-08-03T10:21:21.011Z,58.35
2017-08-03T10:23:50.559Z,59.01
2017-08-03T10:26:20.133Z,60.31
2017-08-03T10:28:49.669Z,60.63
2017-08-03T10:31:19.194Z,60.14
2017-08-03T10:33:49.603Z,59.49
2017-08-03T10:36:19.254Z,59.17
2017-08-03T10:38:48.788Z,59.93
2017-08-03T10:41:18.312Z,59.03
2017-08-03T10:43:47.843Z,59.34
2017-08-03T10:46:18.163Z,58.66
2017-08-03T10:48:47.700Z,58.44
2017-08-03T10:51:17.235Z,58.58
2017-08-03T10:53:46.772Z,59.26
2017-08-03T10:56:16.339Z,57.45
2017-08-03T10:58:45.897Z,58.90
2017-08-03T11:01:15.085Z,58.30
2017-08-03T11:03:44.640Z,57.89
2017-08-03T11:06:14.197Z,58.05
2017-08-03T11:08:43.739Z,57.30
2017-08-03T11:11:14.047Z,56.03
2017-08-03T11:13:43.750Z,55.62
2017-08-03T11:16:14.074Z,56.72
2017-08-03T11:18:43.598Z,57.21
2017-08-03T11:21:13.930Z,56.40
2017-08-03T11:23:44.222Z,55.64
2017-08-03T11:26:13.813Z,55.72
2017-08-03T11:28:44.048Z,55.42
2017-08-03T11:31:13.577Z,53.36
2017-08-03T11:33:43.900Z,53.20
2017-08-03T11:36:15.073Z,53.89
2017-08-03T11:38:44.623Z,54.57
2017-08-03T11:41:14.212Z,54.11
2017-08-03T11:43:43.743Z,55.21
2017-08-03T11:46:13.305Z,53.48
2017-08-03T11:48:42.857Z,55.28
2017-08-03T11:51:12.594Z,54.07
2017-08-03T11:53:42.916Z,54.68
2017-08-03T11:56:13.263Z,55.24
2017-08-03T11:58:42.794Z,56.19
2017-08-03T12:01:12.355Z,54.88
2017-08-03T12:03:42.657Z,55.77
2017-08-03T12:06:12.230Z,55.17
2017-08-03T12:08:41.750Z,54.41
2017-08-03T12:11:11.261Z,53.34
2017-08-03T12:13:40.808Z,53.08
2017-08-03T12:16:11.194Z,52.04
2017-08-03T12:18:40.729Z,52.90
2017-08-03T12:21:10.275Z,53.70
2017-08-03T12:23:39.806Z,53.34
2017-08-03T12:26:09.001Z,53.11
2017-08-03T12:28:38.571Z,52.83
2017-08-03T12:31:08.150Z,51.58
2017-08-03T12:33:37.695Z,51.47
2017-08-03T12:36:06.545Z,50.00
2017-08-03T12:38:35.133Z,50.47
2017-08-03T12:41:04.637Z,48.29
2017-08-03T12:43:34.154Z,47.13
2017-08-03T12:46:03.721Z,46.42
2017-08-03T12:48:33.259Z,45.36
2017-08-03T12:51:02.821Z,44.65
2017-08-03T12:53:32.340Z,44.04
2017-08-03T12:56:01.855Z,44.24
2017-08-03T12:58:31.406Z,44.55
2017-08-03T13:01:01.700Z,44.48
2017-08-03T13:03:31.236Z,45.27
2017-08-03T13:06:01.536Z,44.14
2017-08-03T13:08:31.074Z,44.61
2017-08-03T13:11:00.608Z,43.80
2017-08-03T13:13:30.196Z,44.16
2017-08-03T13:15:59.755Z,43.08
2017-08-03T13:18:29.600Z,43.03
2017-08-03T13:20:59.904Z,42.24
2017-08-03T13:23:29.443Z,42.32
2017-08-03T13:25:59.001Z,41.94
2017-08-03T13:28:28.532Z,41.95
2017-08-03T13:30:58.063Z,41.37
2017-08-03T13:33:27.581Z,41.64
2017-08-03T13:35:57.133Z,41.42
2017-08-03T13:38:26.651Z,43.08
2017-08-03T13:40:56.164Z,41.65
2017-08-03T13:43:25.697Z,43.93
2017-08-03T13:45:55.327Z,43.59
2017-08-03T13:48:24.858Z,44.05
2017-08-03T13:50:54.390Z,41.76
2017-08-03T13:53:23.948Z,43.34
2017-08-03T13:55:53.479Z,43.46
2017-08-03T13:58:22.999Z,43.76
2017-08-03T14:00:52.550Z,43.74
2017-08-03T14:03:22.129Z,44.61
2017-08-03T14:05:52.423Z,44.25
2017-08-03T14:08:21.967Z,44.82
2017-08-03T14:10:52.281Z,45.17
2017-08-03T14:13:21.806Z,44.79
2017-08-03T14:15:52.097Z,44.76
2017-08-03T14:18:21.644Z,43.93
2017-08-03T14:20:51.199Z,43.41
2017-08-03T14:23:20.757Z,41.67
2017-08-03T14:25:50.318Z,39.86
2017-08-03T14:28:19.842Z,39.77
2017-08-03T14:30:49.404Z,40.82
2017-08-03T14:33:18.940Z,40.44
2017-08-03T14:35:48.482Z,39.44
2017-08-03T14:38:18.905Z,38.71
2017-08-03T14:40:49.219Z,37.42
2017-08-03T14:43:19.535Z,37.18
2017-08-03T14:45:49.060Z,37.41
2017-08-03T14:48:19.473Z,37.64
2017-08-03T14:50:49.001Z,37.31
2017-08-03T14:53:18.571Z,37.60
2017-08-03T14:55:48.088Z,38.40
2017-08-03T14:58:17.622Z,37.35
2017-08-03T15:00:47.182Z,37.04
2017-08-03T15:03:16.831Z,36.77
2017-08-03T15:05:47.155Z,35.62
2017-08-03T15:08:17.069Z,35.33
2017-08-03T15:10:47.385Z,34.46
2017-08-03T15:13:17.661Z,34.46
2017-08-03T15:15:47.196Z,33.82
2017-08-03T15:18:16.718Z,33.26
2017-08-03T15:20:47.087Z,33.21
2017-08-03T15:23:16.655Z,32.97
2017-08-03T15:25:46.937Z,31.96
2017-08-03T15:28:16.836Z,31.86
2017-08-03T15:30:46.358Z,31.87
2017-08-03T15:33:15.882Z,32.34
2017-08-03T15:35:45.414Z,32.36
2017-08-03T15:38:15.790Z,31.12
2017-08-03T15:40:45.333Z,31.34
2017-08-03T15:43:14.918Z,30.39
2017-08-03T15:45:44.564Z,30.98
2017-08-03T15:48:15.042Z,30.90
2017-08-03T15:50:44.586Z,30.98
2017-08-03T15:53:14.133Z,30.33
2017-08-03T15:55:43.671Z,30.19
2017-08-03T15:58:13.311Z,29.93
2017-08-03T16:00:42.511Z,29.63
2017-08-03T16:03:12.091Z,29.57
2017-08-03T16:05:41.600Z,28.46
2017-08-03T16:08:10.822Z,28.99
2017-08-03T16:10:40.359Z,29.50
2017-08-03T16:13:09.900Z,30.17
2017-08-03T16:15:39.440Z,31.11
2017-08-03T16:18:08.979Z,30.47
2017-08-03T16:20:38.613Z,30.88
2017-08-03T16:23:07.824Z,30.00
2017-08-03T16:25:37.417Z,30.06
2017-08-03T16:28:06.947Z,29.30
2017-08-03T16:30:36.302Z,28.04
2017-08-03T16:33:05.611Z,28.24
2017-08-03T16:35:35.178Z,28.65
2017-08-03T16:38:04.739Z,29.10
2017-08-03T16:40:37.564Z,29.80
2017-08-03T16:43:07.141Z,28.95
2017-08-03T16:45:36.360Z,29.09
2017-08-03T16:48:05.883Z,29.01
2017-08-03T16:50:35.586Z,30.45
2017-08-03T16:53:07.848Z,29.48
2017-08-03T16:55:38.247Z,29.47
2017-08-03T16:58:07.865Z,28.77
2017-08-03T17:00:38.843Z,29.89
2017-08-03T17:03:09.174Z,30.01
2017-08-03T17:05:39.500Z,29.86
2017-08-03T17:08:09.823Z,30.44
2017-08-03T17:10:40.116Z,29.92
2017-08-03T17:13:09.822Z,29.67
2017-08-03T17:15:39.368Z,30.10
2017-08-03T17:18:09.687Z,32.52
2017-08-03T17:20:39.982Z,32.25
2017-08-03T17:23:09.536Z,32.16
2017-08-03T17:25:39.104Z,34.02
2017-08-03T17:28:08.736Z,32.74
2017-08-03T17:30:39.106Z,32.79
2017-08-03T17:33:08.649Z,32.81
2017-08-03T17:35:39.891Z,32.51
2017-08-03T17:38:09.444Z,33.15
2017-08-03T17:40:38.987Z,33.47
2017-08-03T17:43:08.345Z,34.57
2017-08-03T17:45:37.893Z,34.34
2017-08-03T17:48:07.447Z,34.70
2017-08-03T17:50:37.806Z,35.51
2017-08-03T17:53:07.337Z,35.43
2017-08-03T17:55:36.898Z,35.12
2017-08-03T17:58:07.124Z,36.63
2017-08-03T18:00:36.741Z,36.95
2017-08-03T18:03:06.372Z,38.70
2017-08-03T18:05:35.974Z,38.27
2017-08-03T18:08:05.507Z,38.57
2017-08-03T18:10:35.235Z,38.69
2017-08-03T18:13:04.752Z,39.22
2017-08-03T18:15:35.939Z,39.56
2017-08-03T18:18:05.461Z,39.86
2017-08-03T18:20:34.997Z,39.72
2017-08-03T18:23:04.536Z,40.48
2017-08-03T18:25:34.071Z,40.89
2017-08-03T18:28:03.588Z,40.49
2017-08-03T18:30:33.110Z,40.81
2017-08-03T18:33:02.668Z,41.18
2017-08-03T18:35:32.203Z,40.98
2017-08-03T18:38:01.730Z,40.83
2017-08-03T18:40:31.404Z,40.92
2017-08-03T18:43:00.930Z,42.52
2017-08-03T18:45:30.493Z,42.29
2017-08-03T18:48:00.027Z,42.20
2017-08-03T18:50:29.627Z,42.41
2017-08-03T18:52:59.258Z,42.57
2017-08-03T18:55:28.453Z,42.10
2017-08-03T18:57:57.969Z,42.20
2017-08-03T19:00:27.492Z,42.83
2017-08-03T19:02:57.032Z,43.00
2017-08-03T19:05:25.887Z,43.15
2017-08-03T19:07:55.435Z,42.69
2017-08-03T19:10:24.990Z,42.08
2017-08-03T19:12:54.546Z,42.34
2017-08-03T19:15:24.109Z,42.81
2017-08-03T19:17:54.244Z,43.33
2017-08-03T19:20:23.788Z,44.32
2017-08-03T19:22:53.360Z,44.15
2017-08-03T19:25:22.903Z,44.08
2017-08-03T19:27:52.451Z,44.42
2017-08-03T19:30:22.825Z,44.33
2017-08-03T19:32:52.495Z,44.63
2017-08-03T19:35:22.008Z,45.59
2017-08-03T19:37:51.582Z,45.60
2017-08-03T19:40:21.097Z,46.70
2017-08-03T19:42:50.621Z,46.12
2017-08-03T19:45:20.144Z,46.00
2017-08-03T19:47:50.561Z,46.08
2017-08-03T19:50:20.065Z,46.17
2017-08-03T19:52:49.837Z,47.24
2017-08-03T19:55:19.419Z,47.53
2017-08-03T19:57:48.966Z,47.14
2017-08-03T20:00:18.513Z,46.96
2017-08-03T20:02:48.906Z,46.94
2017-08-03T20:05:17.498Z,47.84
2017-08-03T20:07:54.578Z,47.96
2017-08-03T20:10:23.764Z,48.11
2017-08-03T20:12:52.368Z,47.46
2017-08-03T20:15:21.917Z,47.53
2017-08-03T20:17:51.256Z,47.72
2017-08-03T20:20:20.669Z,47.60
2017-08-03T20:22:50.176Z,47.79
2017-08-03T20:25:19.825Z,47.26
2017-08-03T20:27:50.133Z,47.18
2017-08-03T20:30:20.109Z,47.86
2017-08-03T20:32:49.639Z,48.36
2017-08-03T20:35:19.200Z,48.26
2017-08-03T20:37:48.731Z,48.67
2017-08-03T20:40:18.281Z,49.73
2017-08-03T20:42:48.558Z,49.54
2017-08-03T20:45:18.093Z,49.77
2017-08-03T20:47:47.614Z,50.74
2017-08-03T20:50:17.174Z,51.01
2017-08-03T20:52:46.701Z,51.10
2017-08-03T20:55:16.235Z,51.72
2017-08-03T20:57:45.800Z,51.83
2017-08-03T21:00:15.331Z,51.70
2017-08-03T21:02:45.556Z,52.04
2017-08-03T21:05:15.124Z,52.46
2017-08-03T21:07:44.673Z,52.17
2017-08-03T21:10:14.202Z,52.53
2017-08-03T21:12:44.670Z,52.88
2017-08-03T21:15:13.842Z,53.21
2017-08-03T21:17:43.363Z,52.93
2017-08-03T21:20:12.559Z,52.58
2017-08-03T21:22:42.081Z,52.38
2017-08-03T21:25:12.938Z,52.52
2017-08-03T21:27:42.516Z,52.17
2017-08-03T21:30:12.371Z,52.43
2017-08-03T21:32:42.039Z,52.69
2017-08-03T21:35:12.166Z,52.46
2017-08-03T21:37:41.770Z,51.90
2017-08-03T21:40:11.352Z,52.60
2017-08-03T21:42:40.899Z,52.36
2017-08-03T21:45:10.475Z,53.04
2017-08-03T21:47:40.049Z,53.69
2017-08-03T21:50:09.231Z,54.61
2017-08-03T21:52:38.748Z,55.54
2017-08-03T21:55:08.303Z,56.22
2017-08-03T21:57:37.842Z,56.81
2017-08-03T22:00:06.516Z,56.74
2017-08-03T22:02:36.064Z,56.80
2017-08-03T22:05:06.362Z,57.29
2017-08-03T22:07:35.916Z,57.21
2017-08-03T22:10:05.078Z,57.96
2017-08-03T22:12:34.713Z,57.92
2017-08-03T22:15:05.254Z,58.33
2017-08-03T22:17:34.803Z,57.96
2017-08-03T22:20:04.096Z,58.87
2017-08-03T22:22:33.631Z,58.68
2017-08-03T22:25:03.334Z,58.06
2017-08-03T22:27:33.017Z,58.40
2017-08-03T22:30:02.603Z,58.38
2017-08-03T22:32:32.143Z,58.41
2017-08-03T22:35:01.702Z,58.26
2017-08-03T22:37:31.343Z,58.62
2017-08-03T22:40:00.881Z,58.97
2017-08-03T22:42:30.419Z,58.92
2017-08-03T22:45:00.893Z,59.09
2017-08-03T22:47:30.466Z,59.16
2017-08-03T22:50:00.042Z,58.68
2017-08-03T22:52:29.593Z,58.82
2017-08-03T22:54:59.267Z,58.64
2017-08-03T22:57:28.796Z,58.17
2017-08-03T22:59:58.358Z,57.61
2017-08-03T23:02:27.896Z,57.39
2017-08-03T23:04:57.955Z,56.85
2017-08-03T23:07:27.500Z,56.16
2017-08-03T23:09:57.639Z,56.24
2017-08-03T23:12:27.944Z,55.51
2017-08-03T23:14:57.662Z,55.60
2017-08-03T23:17:27.159Z,55.90
2017-08-03T23:19:56.681Z,56.40
2017-08-03T23:22:26.982Z,57.41
2017-08-03T23:24:56.567Z,57.95
2017-08-03T23:27:26.107Z,57.34
2017-08-03T23:29:55.629Z,55.55
2017-08-03T23:32:26.466Z,55.58
2017-08-03T23:34:56.764Z,56.33
2017-08-03T23:37:26.285Z,56.96
2017-08-03T23:39:56.150Z,57.07
2017-08-03T23:42:25.674Z,56.82
2017-08-03T23:44:55.212Z,56.84
2017-08-03T23:47:24.732Z,55.47
2017-08-03T23:49:55.048Z,55.40
2017-08-03T23:52:24.573Z,55.32
2017-08-03T23:54:54.123Z,55.00
2017-08-03T23:57:23.750Z,54.89
2017-08-03T23:59:53.278Z,56.10
